sensor_id;sensor_type;location;lat;lon;timestamp;temperature;humidity
74364;DHT22;62797;49.740;10.154;2024-01-07T00:01:24;3.80;77.20
74364;DHT22;62797;49.740;10.154;2024-01-07T00:03:51;3.90;77.10
74364;DHT22;62797;49.740;10.154;2024-01-07T00:06:17;3.80;77.00
74364;DHT22;62797;49.740;10.154;2024-01-07T00:08:43;3.80;77.40
74364;DHT22;62797;49.740;10.154;2024-01-07T00:11:09;3.80;78.30
74364;DHT22;62797;49.740;10.154;2024-01-07T00:13:35;3.80;78.50
74364;DHT22;62797;49.740;10.154;2024-01-07T00:16:01;3.80;78.00
74364;DHT22;62797;49.740;10.154;2024-01-07T00:18:27;3.70;78.10
74364;DHT22;62797;49.740;10.154;2024-01-07T00:20:53;3.80;78.90
74364;DHT22;62797;49.740;10.154;2024-01-07T00:23:19;3.70;79.40
74364;DHT22;62797;49.740;10.154;2024-01-07T00:25:47;3.60;79.20
74364;DHT22;62797;49.740;10.154;2024-01-07T00:28:12;3.50;79.20
74364;DHT22;62797;49.740;10.154;2024-01-07T00:30:38;3.50;79.20
74364;DHT22;62797;49.740;10.154;2024-01-07T00:33:04;3.50;78.70
74364;DHT22;62797;49.740;10.154;2024-01-07T00:35:30;3.50;79.40
74364;DHT22;62797;49.740;10.154;2024-01-07T00:37:57;3.50;79.10
74364;DHT22;62797;49.740;10.154;2024-01-07T00:40:23;3.50;79.80
74364;DHT22;62797;49.740;10.154;2024-01-07T00:42:49;3.40;78.50
74364;DHT22;62797;49.740;10.154;2024-01-07T00:45:15;3.50;78.80
74364;DHT22;62797;49.740;10.154;2024-01-07T00:47:41;3.40;80.10
74364;DHT22;62797;49.740;10.154;2024-01-07T00:50:07;3.40;79.90
74364;DHT22;62797;49.740;10.154;2024-01-07T00:52:33;3.40;79.80
74364;DHT22;62797;49.740;10.154;2024-01-07T00:54:59;3.40;79.50
74364;DHT22;62797;49.740;10.154;2024-01-07T00:57:25;3.40;79.40
74364;DHT22;62797;49.740;10.154;2024-01-07T00:59:51;3.50;80.10
74364;DHT22;62797;49.740;10.154;2024-01-07T01:02:17;3.50;79.40
74364;DHT22;62797;49.740;10.154;2024-01-07T01:04:43;3.50;79.90
74364;DHT22;62797;49.740;10.154;2024-01-07T01:07:08;3.50;79.10
74364;DHT22;62797;49.740;10.154;2024-01-07T01:09:34;3.40;78.90
74364;DHT22;62797;49.740;10.154;2024-01-07T01:12:00;3.40;78.80
74364;DHT22;62797;49.740;10.154;2024-01-07T01:14:26;3.40;79.70
74364;DHT22;62797;49.740;10.154;2024-01-07T01:16:52;3.70;79.40
74364;DHT22;62797;49.740;10.154;2024-01-07T01:19:19;3.40;79.70
74364;DHT22;62797;49.740;10.154;2024-01-07T01:21:46;3.40;79.40
74364;DHT22;62797;49.740;10.154;2024-01-07T01:24:12;3.40;80.80
74364;DHT22;62797;49.740;10.154;2024-01-07T01:26:38;3.60;79.90
74364;DHT22;62797;49.740;10.154;2024-01-07T01:29:05;3.70;79.50
74364;DHT22;62797;49.740;10.154;2024-01-07T01:31:30;3.60;79.30
74364;DHT22;62797;49.740;10.154;2024-01-07T01:33:56;3.60;79.20
74364;DHT22;62797;49.740;10.154;2024-01-07T01:36:22;3.60;79.10
74364;DHT22;62797;49.740;10.154;2024-01-07T01:38:48;3.60;79.00
74364;DHT22;62797;49.740;10.154;2024-01-07T01:41:15;3.50;78.60
74364;DHT22;62797;49.740;10.154;2024-01-07T01:43:41;3.50;78.80
74364;DHT22;62797;49.740;10.154;2024-01-07T01:46:07;3.50;79.10
74364;DHT22;62797;49.740;10.154;2024-01-07T01:48:35;3.50;79.40
74364;DHT22;62797;49.740;10.154;2024-01-07T01:51:01;3.80;79.70
74364;DHT22;62797;49.740;10.154;2024-01-07T01:53:28;3.50;79.00
74364;DHT22;62797;49.740;10.154;2024-01-07T01:55:56;3.70;79.30
74364;DHT22;62797;49.740;10.154;2024-01-07T01:58:23;3.70;78.50
74364;DHT22;62797;49.740;10.154;2024-01-07T02:00:50;3.70;78.30
74364;DHT22;62797;49.740;10.154;2024-01-07T02:03:17;3.60;79.00
74364;DHT22;62797;49.740;10.154;2024-01-07T02:05:42;3.70;78.30
74364;DHT22;62797;49.740;10.154;2024-01-07T02:08:09;3.60;77.50
74364;DHT22;62797;49.740;10.154;2024-01-07T02:10:36;3.60;78.30
74364;DHT22;62797;49.740;10.154;2024-01-07T02:13:04;3.60;79.50
74364;DHT22;62797;49.740;10.154;2024-01-07T02:15:31;3.60;79.50
74364;DHT22;62797;49.740;10.154;2024-01-07T02:17:56;3.80;79.50
74364;DHT22;62797;49.740;10.154;2024-01-07T02:20:23;3.80;79.30
74364;DHT22;62797;49.740;10.154;2024-01-07T02:22:49;3.60;79.40
74364;DHT22;62797;49.740;10.154;2024-01-07T02:25:15;3.90;79.90
74364;DHT22;62797;49.740;10.154;2024-01-07T02:27:41;3.70;79.40
74364;DHT22;62797;49.740;10.154;2024-01-07T02:30:07;3.60;79.20
74364;DHT22;62797;49.740;10.154;2024-01-07T02:32:33;3.60;78.50
74364;DHT22;62797;49.740;10.154;2024-01-07T02:35:01;3.70;78.70
74364;DHT22;62797;49.740;10.154;2024-01-07T02:37:27;3.80;79.00
74364;DHT22;62797;49.740;10.154;2024-01-07T02:39:53;3.70;79.20
74364;DHT22;62797;49.740;10.154;2024-01-07T02:42:19;3.70;79.30
74364;DHT22;62797;49.740;10.154;2024-01-07T02:44:44;3.70;78.60
74364;DHT22;62797;49.740;10.154;2024-01-07T02:47:10;3.70;78.50
74364;DHT22;62797;49.740;10.154;2024-01-07T02:49:36;3.60;78.50
74364;DHT22;62797;49.740;10.154;2024-01-07T02:52:02;3.80;78.90
74364;DHT22;62797;49.740;10.154;2024-01-07T02:54:28;3.80;77.50
74364;DHT22;62797;49.740;10.154;2024-01-07T02:56:56;3.90;77.40
74364;DHT22;62797;49.740;10.154;2024-01-07T02:59:21;3.90;77.00
74364;DHT22;62797;49.740;10.154;2024-01-07T03:01:47;3.90;77.60
74364;DHT22;62797;49.740;10.154;2024-01-07T03:04:16;4.00;76.60
74364;DHT22;62797;49.740;10.154;2024-01-07T03:06:42;4.00;76.40
74364;DHT22;62797;49.740;10.154;2024-01-07T03:09:08;4.00;76.40
74364;DHT22;62797;49.740;10.154;2024-01-07T03:11:39;3.70;75.50
74364;DHT22;62797;49.740;10.154;2024-01-07T03:14:06;4.10;75.30
74364;DHT22;62797;49.740;10.154;2024-01-07T03:16:32;4.10;75.00
74364;DHT22;62797;49.740;10.154;2024-01-07T03:18:57;4.00;75.20
74364;DHT22;62797;49.740;10.154;2024-01-07T03:21:23;4.10;75.30
74364;DHT22;62797;49.740;10.154;2024-01-07T03:23:50;4.10;75.10
74364;DHT22;62797;49.740;10.154;2024-01-07T03:26:17;4.10;74.40
74364;DHT22;62797;49.740;10.154;2024-01-07T03:28:43;4.10;74.00
74364;DHT22;62797;49.740;10.154;2024-01-07T03:31:12;4.10;74.30
74364;DHT22;62797;49.740;10.154;2024-01-07T03:33:41;4.10;74.10
74364;DHT22;62797;49.740;10.154;2024-01-07T03:36:12;4.10;73.60
74364;DHT22;62797;49.740;10.154;2024-01-07T03:38:39;4.10;73.50
74364;DHT22;62797;49.740;10.154;2024-01-07T03:41:05;4.10;73.50
74364;DHT22;62797;49.740;10.154;2024-01-07T03:43:31;4.20;73.50
74364;DHT22;62797;49.740;10.154;2024-01-07T03:45:57;4.10;73.80
74364;DHT22;62797;49.740;10.154;2024-01-07T03:48:22;4.10;72.60
74364;DHT22;62797;49.740;10.154;2024-01-07T03:50:48;4.10;72.30
74364;DHT22;62797;49.740;10.154;2024-01-07T03:53:14;4.10;73.10
74364;DHT22;62797;49.740;10.154;2024-01-07T03:55:40;4.10;72.50
74364;DHT22;62797;49.740;10.154;2024-01-07T03:58:06;4.10;72.00
74364;DHT22;62797;49.740;10.154;2024-01-07T04:00:33;4.10;71.10
74364;DHT22;62797;49.740;10.154;2024-01-07T04:02:58;4.30;70.90
74364;DHT22;62797;49.740;10.154;2024-01-07T04:05:25;4.00;70.80
74364;DHT22;62797;49.740;10.154;2024-01-07T04:07:51;4.00;71.30
74364;DHT22;62797;49.740;10.154;2024-01-07T04:10:17;4.30;71.00
74364;DHT22;62797;49.740;10.154;2024-01-07T04:12:43;4.10;71.20
74364;DHT22;62797;49.740;10.154;2024-01-07T04:15:09;4.00;69.70
74364;DHT22;62797;49.740;10.154;2024-01-07T04:17:35;4.00;69.10
74364;DHT22;62797;49.740;10.154;2024-01-07T04:20:01;3.90;69.00
74364;DHT22;62797;49.740;10.154;2024-01-07T04:22:26;3.90;70.10
74364;DHT22;62797;49.740;10.154;2024-01-07T04:24:52;4.10;69.80
74364;DHT22;62797;49.740;10.154;2024-01-07T04:27:18;4.20;69.60
74364;DHT22;62797;49.740;10.154;2024-01-07T04:29:44;3.90;68.80
74364;DHT22;62797;49.740;10.154;2024-01-07T04:32:10;4.50;69.60
74364;DHT22;62797;49.740;10.154;2024-01-07T04:34:35;4.00;69.70
74364;DHT22;62797;49.740;10.154;2024-01-07T04:37:01;4.10;69.80
74364;DHT22;62797;49.740;10.154;2024-01-07T04:39:27;4.00;69.20
74364;DHT22;62797;49.740;10.154;2024-01-07T04:41:55;4.10;69.40
74364;DHT22;62797;49.740;10.154;2024-01-07T04:44:20;4.00;69.00
74364;DHT22;62797;49.740;10.154;2024-01-07T04:46:47;4.00;69.50
74364;DHT22;62797;49.740;10.154;2024-01-07T04:49:14;4.10;69.00
74364;DHT22;62797;49.740;10.154;2024-01-07T04:51:40;4.00;68.90
74364;DHT22;62797;49.740;10.154;2024-01-07T04:54:06;4.00;68.50
74364;DHT22;62797;49.740;10.154;2024-01-07T04:56:32;4.00;68.80
74364;DHT22;62797;49.740;10.154;2024-01-07T04:58:58;4.00;68.00
74364;DHT22;62797;49.740;10.154;2024-01-07T05:01:23;3.90;68.20
74364;DHT22;62797;49.740;10.154;2024-01-07T05:03:49;3.80;67.70
74364;DHT22;62797;49.740;10.154;2024-01-07T05:06:15;4.30;67.90
74364;DHT22;62797;49.740;10.154;2024-01-07T05:08:41;4.10;67.90
74364;DHT22;62797;49.740;10.154;2024-01-07T05:11:07;4.20;67.70
74364;DHT22;62797;49.740;10.154;2024-01-07T05:13:33;3.80;67.10
74364;DHT22;62797;49.740;10.154;2024-01-07T05:16:00;3.80;66.70
74364;DHT22;62797;49.740;10.154;2024-01-07T05:18:26;3.80;67.00
74364;DHT22;62797;49.740;10.154;2024-01-07T05:20:52;3.80;67.00
74364;DHT22;62797;49.740;10.154;2024-01-07T05:23:18;3.80;66.50
74364;DHT22;62797;49.740;10.154;2024-01-07T05:25:45;4.00;66.10
74364;DHT22;62797;49.740;10.154;2024-01-07T05:28:13;3.70;65.70
74364;DHT22;62797;49.740;10.154;2024-01-07T05:30:39;3.70;65.10
74364;DHT22;62797;49.740;10.154;2024-01-07T05:33:05;3.80;65.10
74364;DHT22;62797;49.740;10.154;2024-01-07T05:35:31;3.60;65.60
74364;DHT22;62797;49.740;10.154;2024-01-07T05:37:57;3.70;65.70
74364;DHT22;62797;49.740;10.154;2024-01-07T05:40:23;3.70;64.80
74364;DHT22;62797;49.740;10.154;2024-01-07T05:42:49;3.60;63.90
74364;DHT22;62797;49.740;10.154;2024-01-07T05:45:15;3.60;65.00
74364;DHT22;62797;49.740;10.154;2024-01-07T05:47:40;3.60;64.40
74364;DHT22;62797;49.740;10.154;2024-01-07T05:50:07;3.60;65.00
74364;DHT22;62797;49.740;10.154;2024-01-07T05:52:33;3.60;64.50
74364;DHT22;62797;49.740;10.154;2024-01-07T05:54:59;3.60;63.40
74364;DHT22;62797;49.740;10.154;2024-01-07T05:57:25;3.50;64.40
74364;DHT22;62797;49.740;10.154;2024-01-07T05:59:51;3.50;64.60
74364;DHT22;62797;49.740;10.154;2024-01-07T06:02:17;3.50;64.80
74364;DHT22;62797;49.740;10.154;2024-01-07T06:04:43;3.40;64.00
74364;DHT22;62797;49.740;10.154;2024-01-07T06:07:09;3.40;63.90
74364;DHT22;62797;49.740;10.154;2024-01-07T06:09:35;3.40;64.00
74364;DHT22;62797;49.740;10.154;2024-01-07T06:12:01;3.30;64.10
74364;DHT22;62797;49.740;10.154;2024-01-07T06:14:27;3.30;63.80
74364;DHT22;62797;49.740;10.154;2024-01-07T06:16:53;3.40;63.40
74364;DHT22;62797;49.740;10.154;2024-01-07T06:19:19;3.30;63.70
74364;DHT22;62797;49.740;10.154;2024-01-07T06:21:44;3.30;63.60
74364;DHT22;62797;49.740;10.154;2024-01-07T06:24:11;3.30;63.60
74364;DHT22;62797;49.740;10.154;2024-01-07T06:26:36;3.30;63.80
74364;DHT22;62797;49.740;10.154;2024-01-07T06:29:02;3.30;63.80
74364;DHT22;62797;49.740;10.154;2024-01-07T06:31:28;3.30;63.10
74364;DHT22;62797;49.740;10.154;2024-01-07T06:33:56;3.40;63.70
74364;DHT22;62797;49.740;10.154;2024-01-07T06:36:23;3.30;62.90
74364;DHT22;62797;49.740;10.154;2024-01-07T06:38:49;3.20;62.90
74364;DHT22;62797;49.740;10.154;2024-01-07T06:41:14;3.10;62.20
74364;DHT22;62797;49.740;10.154;2024-01-07T06:43:40;3.00;62.80
74364;DHT22;62797;49.740;10.154;2024-01-07T06:46:06;3.60;63.60
74364;DHT22;62797;49.740;10.154;2024-01-07T06:48:32;3.20;63.90
74364;DHT22;62797;49.740;10.154;2024-01-07T06:50:58;3.00;62.20
74364;DHT22;62797;49.740;10.154;2024-01-07T06:53:23;3.00;62.60
74364;DHT22;62797;49.740;10.154;2024-01-07T06:55:49;3.40;63.70
74364;DHT22;62797;49.740;10.154;2024-01-07T06:58:15;3.50;62.90
74364;DHT22;62797;49.740;10.154;2024-01-07T07:00:41;3.10;62.80
74364;DHT22;62797;49.740;10.154;2024-01-07T07:03:07;3.10;62.30
74364;DHT22;62797;49.740;10.154;2024-01-07T07:05:33;3.10;61.60
74364;DHT22;62797;49.740;10.154;2024-01-07T07:07:59;3.30;62.00
74364;DHT22;62797;49.740;10.154;2024-01-07T07:10:25;3.00;61.00
74364;DHT22;62797;49.740;10.154;2024-01-07T07:12:51;3.00;61.30
74364;DHT22;62797;49.740;10.154;2024-01-07T07:15:17;3.00;61.10
74364;DHT22;62797;49.740;10.154;2024-01-07T07:17:43;2.80;60.80
74364;DHT22;62797;49.740;10.154;2024-01-07T07:20:11;2.90;61.40
74364;DHT22;62797;49.740;10.154;2024-01-07T07:22:37;2.90;61.40
74364;DHT22;62797;49.740;10.154;2024-01-07T07:25:03;2.90;61.20
74364;DHT22;62797;49.740;10.154;2024-01-07T07:27:28;3.00;59.70
74364;DHT22;62797;49.740;10.154;2024-01-07T07:29:54;2.90;60.90
74364;DHT22;62797;49.740;10.154;2024-01-07T07:32:20;3.20;61.10
74364;DHT22;62797;49.740;10.154;2024-01-07T07:34:46;3.00;62.00
74364;DHT22;62797;49.740;10.154;2024-01-07T07:37:13;3.00;60.70
74364;DHT22;62797;49.740;10.154;2024-01-07T07:39:39;3.00;59.60
74364;DHT22;62797;49.740;10.154;2024-01-07T07:42:04;2.90;59.30
74364;DHT22;62797;49.740;10.154;2024-01-07T07:44:31;2.80;59.00
74364;DHT22;62797;49.740;10.154;2024-01-07T07:46:56;2.90;59.20
74364;DHT22;62797;49.740;10.154;2024-01-07T07:49:22;2.80;58.20
74364;DHT22;62797;49.740;10.154;2024-01-07T07:51:48;2.80;57.90
74364;DHT22;62797;49.740;10.154;2024-01-07T07:54:14;2.80;58.00
74364;DHT22;62797;49.740;10.154;2024-01-07T07:56:40;2.80;57.10
74364;DHT22;62797;49.740;10.154;2024-01-07T07:59:05;2.80;57.40
74364;DHT22;62797;49.740;10.154;2024-01-07T08:01:32;2.70;56.90
74364;DHT22;62797;49.740;10.154;2024-01-07T08:03:57;2.70;56.50
74364;DHT22;62797;49.740;10.154;2024-01-07T08:06:23;2.70;57.00
74364;DHT22;62797;49.740;10.154;2024-01-07T08:08:49;2.70;57.80
74364;DHT22;62797;49.740;10.154;2024-01-07T08:11:14;2.70;57.90
74364;DHT22;62797;49.740;10.154;2024-01-07T08:13:41;2.70;57.50
74364;DHT22;62797;49.740;10.154;2024-01-07T08:16:07;2.60;56.40
74364;DHT22;62797;49.740;10.154;2024-01-07T08:18:32;2.70;57.10
74364;DHT22;62797;49.740;10.154;2024-01-07T08:20:58;2.60;57.50
74364;DHT22;62797;49.740;10.154;2024-01-07T08:23:25;2.70;57.30
74364;DHT22;62797;49.740;10.154;2024-01-07T08:25:50;2.70;57.80
74364;DHT22;62797;49.740;10.154;2024-01-07T08:28:19;2.80;57.20
74364;DHT22;62797;49.740;10.154;2024-01-07T08:30:46;2.90;56.90
74364;DHT22;62797;49.740;10.154;2024-01-07T08:33:12;2.80;56.60
74364;DHT22;62797;49.740;10.154;2024-01-07T08:35:38;2.70;57.30
74364;DHT22;62797;49.740;10.154;2024-01-07T08:38:04;2.60;56.90
74364;DHT22;62797;49.740;10.154;2024-01-07T08:40:31;2.60;56.40
74364;DHT22;62797;49.740;10.154;2024-01-07T08:42:56;2.60;57.00
74364;DHT22;62797;49.740;10.154;2024-01-07T08:45:22;2.70;56.80
74364;DHT22;62797;49.740;10.154;2024-01-07T08:47:48;2.60;56.10
74364;DHT22;62797;49.740;10.154;2024-01-07T08:50:14;2.70;57.80
74364;DHT22;62797;49.740;10.154;2024-01-07T08:52:40;2.50;57.60
74364;DHT22;62797;49.740;10.154;2024-01-07T08:55:06;2.50;57.00
74364;DHT22;62797;49.740;10.154;2024-01-07T08:57:36;2.50;57.60
74364;DHT22;62797;49.740;10.154;2024-01-07T09:00:02;2.60;57.20
74364;DHT22;62797;49.740;10.154;2024-01-07T09:02:31;2.50;56.90
74364;DHT22;62797;49.740;10.154;2024-01-07T09:04:57;2.40;57.00
74364;DHT22;62797;49.740;10.154;2024-01-07T09:07:23;2.50;58.70
74364;DHT22;62797;49.740;10.154;2024-01-07T09:09:49;2.50;58.20
74364;DHT22;62797;49.740;10.154;2024-01-07T09:12:14;2.50;56.40
74364;DHT22;62797;49.740;10.154;2024-01-07T09:14:41;2.60;57.30
74364;DHT22;62797;49.740;10.154;2024-01-07T09:17:06;2.80;56.30
74364;DHT22;62797;49.740;10.154;2024-01-07T09:19:32;2.60;56.80
74364;DHT22;62797;49.740;10.154;2024-01-07T09:21:58;2.50;55.00
74364;DHT22;62797;49.740;10.154;2024-01-07T09:24:24;2.50;54.90
74364;DHT22;62797;49.740;10.154;2024-01-07T09:26:50;2.60;55.70
74364;DHT22;62797;49.740;10.154;2024-01-07T09:29:17;2.60;56.70
74364;DHT22;62797;49.740;10.154;2024-01-07T09:31:42;2.50;54.10
74364;DHT22;62797;49.740;10.154;2024-01-07T09:34:08;2.50;54.20
74364;DHT22;62797;49.740;10.154;2024-01-07T09:36:34;2.50;53.50
74364;DHT22;62797;49.740;10.154;2024-01-07T09:39:01;2.40;53.70
74364;DHT22;62797;49.740;10.154;2024-01-07T09:41:27;2.40;54.40
74364;DHT22;62797;49.740;10.154;2024-01-07T09:43:52;2.40;52.00
74364;DHT22;62797;49.740;10.154;2024-01-07T09:46:19;2.50;53.60
74364;DHT22;62797;49.740;10.154;2024-01-07T09:48:45;2.40;53.30
74364;DHT22;62797;49.740;10.154;2024-01-07T09:51:11;2.50;53.10
74364;DHT22;62797;49.740;10.154;2024-01-07T09:53:38;2.40;53.60
74364;DHT22;62797;49.740;10.154;2024-01-07T09:56:12;2.40;54.00
74364;DHT22;62797;49.740;10.154;2024-01-07T09:58:42;2.40;51.80
74364;DHT22;62797;49.740;10.154;2024-01-07T10:01:08;2.40;53.50
74364;DHT22;62797;49.740;10.154;2024-01-07T10:03:35;2.50;53.60
74364;DHT22;62797;49.740;10.154;2024-01-07T10:06:01;2.40;54.00
74364;DHT22;62797;49.740;10.154;2024-01-07T10:08:26;2.40;52.40
74364;DHT22;62797;49.740;10.154;2024-01-07T10:10:52;2.40;53.10
74364;DHT22;62797;49.740;10.154;2024-01-07T10:13:20;2.40;53.50
74364;DHT22;62797;49.740;10.154;2024-01-07T10:15:48;2.30;54.40
74364;DHT22;62797;49.740;10.154;2024-01-07T10:18:14;2.40;54.50
74364;DHT22;62797;49.740;10.154;2024-01-07T10:20:39;2.50;54.80
74364;DHT22;62797;49.740;10.154;2024-01-07T10:23:05;2.60;53.10
74364;DHT22;62797;49.740;10.154;2024-01-07T10:25:33;2.50;53.30
74364;DHT22;62797;49.740;10.154;2024-01-07T10:28:01;2.50;52.50
74364;DHT22;62797;49.740;10.154;2024-01-07T10:30:28;2.40;52.90
74364;DHT22;62797;49.740;10.154;2024-01-07T10:32:57;2.40;53.10
74364;DHT22;62797;49.740;10.154;2024-01-07T10:35:34;2.40;53.20
74364;DHT22;62797;49.740;10.154;2024-01-07T10:38:01;2.40;53.20
74364;DHT22;62797;49.740;10.154;2024-01-07T10:40:28;2.30;52.50
74364;DHT22;62797;49.740;10.154;2024-01-07T10:42:57;2.10;53.20
74364;DHT22;62797;49.740;10.154;2024-01-07T10:45:23;2.10;53.20
74364;DHT22;62797;49.740;10.154;2024-01-07T10:47:50;2.00;54.10
74364;DHT22;62797;49.740;10.154;2024-01-07T10:50:19;2.10;53.50
74364;DHT22;62797;49.740;10.154;2024-01-07T10:52:58;2.00;52.60
74364;DHT22;62797;49.740;10.154;2024-01-07T10:55:32;1.90;53.10
74364;DHT22;62797;49.740;10.154;2024-01-07T10:57:59;1.90;52.60
74364;DHT22;62797;49.740;10.154;2024-01-07T11:00:26;1.80;52.50
74364;DHT22;62797;49.740;10.154;2024-01-07T11:08:26;1.70;53.30
74364;DHT22;62797;49.740;10.154;2024-01-07T11:11:00;1.70;52.90
74364;DHT22;62797;49.740;10.154;2024-01-07T11:13:37;1.70;53.10
74364;DHT22;62797;49.740;10.154;2024-01-07T11:16:06;1.70;53.40
74364;DHT22;62797;49.740;10.154;2024-01-07T11:18:40;1.70;52.90
74364;DHT22;62797;49.740;10.154;2024-01-07T11:21:21;1.60;52.40
74364;DHT22;62797;49.740;10.154;2024-01-07T11:23:47;1.60;53.30
74364;DHT22;62797;49.740;10.154;2024-01-07T11:26:13;1.60;53.20
74364;DHT22;62797;49.740;10.154;2024-01-07T11:28:45;1.60;52.60
74364;DHT22;62797;49.740;10.154;2024-01-07T11:31:12;1.60;52.40
74364;DHT22;62797;49.740;10.154;2024-01-07T11:33:38;1.60;52.50
74364;DHT22;62797;49.740;10.154;2024-01-07T11:36:06;1.60;51.90
74364;DHT22;62797;49.740;10.154;2024-01-07T11:38:34;1.50;51.80
74364;DHT22;62797;49.740;10.154;2024-01-07T11:41:04;1.50;51.60
74364;DHT22;62797;49.740;10.154;2024-01-07T11:43:32;1.50;52.90
74364;DHT22;62797;49.740;10.154;2024-01-07T11:46:00;1.60;52.50
74364;DHT22;62797;49.740;10.154;2024-01-07T11:48:26;1.60;51.30
74364;DHT22;62797;49.740;10.154;2024-01-07T11:50:52;1.50;51.20
74364;DHT22;62797;49.740;10.154;2024-01-07T11:53:19;1.50;51.40
74364;DHT22;62797;49.740;10.154;2024-01-07T11:55:45;1.50;52.40
74364;DHT22;62797;49.740;10.154;2024-01-07T11:58:12;1.50;51.20
74364;DHT22;62797;49.740;10.154;2024-01-07T12:00:38;1.50;51.60
74364;DHT22;62797;49.740;10.154;2024-01-07T12:03:04;1.50;51.60
74364;DHT22;62797;49.740;10.154;2024-01-07T12:05:30;1.50;51.60
74364;DHT22;62797;49.740;10.154;2024-01-07T12:07:57;1.50;51.70
74364;DHT22;62797;49.740;10.154;2024-01-07T12:10:23;1.50;51.50
74364;DHT22;62797;49.740;10.154;2024-01-07T12:12:50;1.50;51.60
74364;DHT22;62797;49.740;10.154;2024-01-07T12:15:20;1.50;51.20
74364;DHT22;62797;49.740;10.154;2024-01-07T12:17:58;1.50;52.00
74364;DHT22;62797;49.740;10.154;2024-01-07T12:20:25;1.50;51.30
74364;DHT22;62797;49.740;10.154;2024-01-07T12:22:51;1.50;50.90
74364;DHT22;62797;49.740;10.154;2024-01-07T12:25:23;1.40;50.70
74364;DHT22;62797;49.740;10.154;2024-01-07T12:27:55;1.50;51.90
74364;DHT22;62797;49.740;10.154;2024-01-07T12:30:23;1.50;50.70
74364;DHT22;62797;49.740;10.154;2024-01-07T12:32:51;1.60;50.80
74364;DHT22;62797;49.740;10.154;2024-01-07T12:35:17;1.50;50.70
74364;DHT22;62797;49.740;10.154;2024-01-07T12:37:43;1.40;50.20
74364;DHT22;62797;49.740;10.154;2024-01-07T12:40:10;1.50;50.50
74364;DHT22;62797;49.740;10.154;2024-01-07T12:42:38;1.40;50.20
74364;DHT22;62797;49.740;10.154;2024-01-07T12:45:06;1.30;50.10
74364;DHT22;62797;49.740;10.154;2024-01-07T12:47:33;1.30;49.50
74364;DHT22;62797;49.740;10.154;2024-01-07T12:49:59;1.30;49.50
74364;DHT22;62797;49.740;10.154;2024-01-07T12:52:25;1.20;48.80
74364;DHT22;62797;49.740;10.154;2024-01-07T12:54:52;1.20;49.40
74364;DHT22;62797;49.740;10.154;2024-01-07T12:57:18;1.20;50.10
74364;DHT22;62797;49.740;10.154;2024-01-07T12:59:44;1.20;50.20
74364;DHT22;62797;49.740;10.154;2024-01-07T13:02:10;1.20;50.10
74364;DHT22;62797;49.740;10.154;2024-01-07T13:04:36;1.30;49.90
74364;DHT22;62797;49.740;10.154;2024-01-07T13:07:01;1.40;50.00
74364;DHT22;62797;49.740;10.154;2024-01-07T13:09:27;1.40;49.30
74364;DHT22;62797;49.740;10.154;2024-01-07T13:11:53;1.40;49.80
74364;DHT22;62797;49.740;10.154;2024-01-07T13:14:19;1.50;48.60
74364;DHT22;62797;49.740;10.154;2024-01-07T13:16:44;1.50;48.70
74364;DHT22;62797;49.740;10.154;2024-01-07T13:19:10;1.50;47.70
74364;DHT22;62797;49.740;10.154;2024-01-07T13:21:38;1.40;49.20
74364;DHT22;62797;49.740;10.154;2024-01-07T13:24:04;1.50;49.00
74364;DHT22;62797;49.740;10.154;2024-01-07T13:26:30;1.50;48.20
74364;DHT22;62797;49.740;10.154;2024-01-07T13:28:56;1.40;48.10
74364;DHT22;62797;49.740;10.154;2024-01-07T13:31:21;1.40;48.70
74364;DHT22;62797;49.740;10.154;2024-01-07T13:33:49;1.40;47.80
74364;DHT22;62797;49.740;10.154;2024-01-07T13:36:14;1.40;48.80
74364;DHT22;62797;49.740;10.154;2024-01-07T13:38:40;1.40;49.10
74364;DHT22;62797;49.740;10.154;2024-01-07T13:41:10;1.40;48.80
74364;DHT22;62797;49.740;10.154;2024-01-07T13:43:36;1.40;48.20
74364;DHT22;62797;49.740;10.154;2024-01-07T13:46:03;1.40;49.50
74364;DHT22;62797;49.740;10.154;2024-01-07T13:48:29;1.50;49.20
74364;DHT22;62797;49.740;10.154;2024-01-07T13:50:55;1.50;47.80
74364;DHT22;62797;49.740;10.154;2024-01-07T13:53:21;1.30;47.50
74364;DHT22;62797;49.740;10.154;2024-01-07T13:55:46;1.20;46.50
74364;DHT22;62797;49.740;10.154;2024-01-07T13:58:12;1.10;46.50
74364;DHT22;62797;49.740;10.154;2024-01-07T14:00:38;1.00;47.00
74364;DHT22;62797;49.740;10.154;2024-01-07T14:03:04;1.00;47.30
74364;DHT22;62797;49.740;10.154;2024-01-07T14:05:30;0.90;47.40
74364;DHT22;62797;49.740;10.154;2024-01-07T14:07:55;0.90;47.00
74364;DHT22;62797;49.740;10.154;2024-01-07T14:10:21;0.90;47.60
74364;DHT22;62797;49.740;10.154;2024-01-07T14:12:47;0.80;47.60
74364;DHT22;62797;49.740;10.154;2024-01-07T14:15:13;1.00;47.10
74364;DHT22;62797;49.740;10.154;2024-01-07T14:17:39;0.80;46.60
74364;DHT22;62797;49.740;10.154;2024-01-07T14:20:06;0.70;47.30
74364;DHT22;62797;49.740;10.154;2024-01-07T14:22:33;0.60;46.40
74364;DHT22;62797;49.740;10.154;2024-01-07T14:24:59;0.60;47.10
74364;DHT22;62797;49.740;10.154;2024-01-07T14:27:24;0.60;47.30
74364;DHT22;62797;49.740;10.154;2024-01-07T14:29:51;0.70;46.20
74364;DHT22;62797;49.740;10.154;2024-01-07T14:32:16;0.70;46.70
74364;DHT22;62797;49.740;10.154;2024-01-07T14:34:42;0.60;47.10
74364;DHT22;62797;49.740;10.154;2024-01-07T14:37:09;0.60;46.30
74364;DHT22;62797;49.740;10.154;2024-01-07T14:39:38;0.50;46.90
74364;DHT22;62797;49.740;10.154;2024-01-07T14:42:04;0.50;46.20
74364;DHT22;62797;49.740;10.154;2024-01-07T14:44:30;0.40;45.40
74364;DHT22;62797;49.740;10.154;2024-01-07T14:46:56;0.40;46.60
74364;DHT22;62797;49.740;10.154;2024-01-07T14:49:21;0.40;47.00
74364;DHT22;62797;49.740;10.154;2024-01-07T14:51:47;0.50;46.70
74364;DHT22;62797;49.740;10.154;2024-01-07T14:54:13;0.50;45.60
74364;DHT22;62797;49.740;10.154;2024-01-07T14:56:39;0.40;45.10
74364;DHT22;62797;49.740;10.154;2024-01-07T14:59:05;0.40;45.30
74364;DHT22;62797;49.740;10.154;2024-01-07T15:01:31;0.40;45.20
74364;DHT22;62797;49.740;10.154;2024-01-07T15:03:57;0.30;45.70
74364;DHT22;62797;49.740;10.154;2024-01-07T15:06:23;0.30;44.80
74364;DHT22;62797;49.740;10.154;2024-01-07T15:08:49;0.30;44.90
74364;DHT22;62797;49.740;10.154;2024-01-07T15:11:16;0.30;45.90
74364;DHT22;62797;49.740;10.154;2024-01-07T15:13:43;0.30;46.10
74364;DHT22;62797;49.740;10.154;2024-01-07T15:16:09;0.30;45.80
74364;DHT22;62797;49.740;10.154;2024-01-07T15:18:35;0.30;44.50
74364;DHT22;62797;49.740;10.154;2024-01-07T15:21:02;0.30;46.80
74364;DHT22;62797;49.740;10.154;2024-01-07T15:23:28;0.30;47.00
74364;DHT22;62797;49.740;10.154;2024-01-07T15:25:54;0.20;45.20
74364;DHT22;62797;49.740;10.154;2024-01-07T15:28:20;0.10;45.70
74364;DHT22;62797;49.740;10.154;2024-01-07T15:30:45;0.10;45.80